Terminal Aerodrome Forecast
Issued by NWS Nashville, TN

Home | Current Version | Previous Version | Text Only | Print | Product List | Glossary On
Versions: 1 2 3 4 5 6 7 8 9 10 11 12 13 14 15 16 17 18 19 20 21 22 23 24 25 26 27 28 29 30 31 32 33 34
120
FTUS44 KOHX 281202 AAB
TAFCSV
TAF AMD
KCSV 281202Z 2812/2912 28005KT P6SM SCT004 BKN015 BKN025
      TEMPO 2812/2814 4SM BR BKN004
     FM281600 29006KT P6SM BKN025 BKN035
     FM282000 34006KT P6SM BKN040
     FM290000 04003KT P6SM BKN070
     FM290800 04003KT 3SM BR BKN070=

USA.gov is the U.S. government's official web portal to all federal, state and local government web resources and services.